Time;durP1;ratioP1;P1;durP2;ratioP2;P2;SDS_P1;SDS_P2;PMS_P1;PMS_P2;Temp;Humidity;BMP_temperature;BMP_pressure;BME280_temperature;BME280_humidity;BME280_pressure;Samples;Min_cycle;Max_cycle;Signal;HPM_P1;HPM_P2
2022/05/25 00:01:22;;;;;;;5.60;3.30;;;11.20;99.90;;;;;;5116803;28;20678;-70
2022/05/25 00:03:48;;;;;;;3.90;3.10;;;11.20;99.90;;;;;;5115930;28;20690;-70
2022/05/25 00:06:14;;;;;;;3.05;2.83;;;11.20;99.90;;;;;;5097380;28;20173;-70
2022/05/25 00:08:41;;;;;;;3.00;2.70;;;11.10;99.90;;;;;;5116391;28;20239;-70
2022/05/25 00:11:08;;;;;;;3.97;3.10;;;11.20;99.90;;;;;;5116324;28;20192;-70
2022/05/25 00:13:34;;;;;;;3.80;3.00;;;11.10;99.90;;;;;;5116404;28;20231;-70
2022/05/25 00:16:00;;;;;;;4.47;3.40;;;11.00;99.90;;;;;;5099339;28;20499;-70
2022/05/25 00:18:26;;;;;;;6.93;3.70;;;11.00;99.90;;;;;;5097990;28;20199;-71
2022/05/25 00:20:52;;;;;;;3.47;3.10;;;11.00;99.90;;;;;;5116782;28;20192;-70
2022/05/25 00:23:17;;;;;;;4.80;3.20;;;11.00;99.90;;;;;;5098348;28;20176;-71
2022/05/25 00:25:43;;;;;;;4.20;3.28;;;11.00;99.90;;;;;;5116304;28;20237;-71
2022/05/25 00:28:11;;;;;;;6.93;3.30;;;11.00;99.90;;;;;;5116144;28;20668;-70
2022/05/25 00:30:39;;;;;;;4.70;3.40;;;10.90;99.90;;;;;;5116069;28;20168;-70
2022/05/25 00:33:05;;;;;;;4.03;2.93;;;10.90;99.90;;;;;;5097557;28;20196;-72
2022/05/25 00:35:35;;;;;;;3.97;3.03;;;10.80;99.90;;;;;;5115581;28;20169;-70
2022/05/25 00:38:01;;;;;;;3.50;2.90;;;10.70;99.90;;;;;;5097332;28;20197;-69
2022/05/25 00:40:37;;;;;;;5.97;3.33;;;10.70;99.90;;;;;;5097491;28;20251;-70
2022/05/25 00:43:03;;;;;;;3.20;3.00;;;10.70;99.90;;;;;;5116021;28;20171;-70
2022/05/25 00:45:36;;;;;;;3.30;3.00;;;10.60;99.90;;;;;;5115609;28;20169;-70
2022/05/25 00:48:05;;;;;;;4.83;3.00;;;10.60;99.90;;;;;;5115355;28;20245;-69
2022/05/25 00:51:12;;;;;;;4.40;3.50;;;10.50;99.90;;;;;;5115289;28;20207;-70
2022/05/25 00:53:18;;;;;;;3.33;3.00;;;10.40;99.90;;;;;;5114979;28;20235;-70
2022/05/25 00:55:45;;;;;;;4.03;3.23;;;10.40;99.90;;;;;;5115665;28;20213;-70
2022/05/25 00:58:10;;;;;;;3.73;3.20;;;10.40;99.90;;;;;;5097382;28;20568;-70
2022/05/25 01:00:37;;;;;;;3.20;3.00;;;10.40;99.90;;;;;;5116203;28;20172;-70
2022/05/25 01:03:08;;;;;;;4.33;3.03;;;10.40;99.90;;;;;;5097564;28;20176;-69
2022/05/25 01:06:00;;;;;;;4.07;3.00;;;10.40;99.90;;;;;;5096844;28;20629;-70
2022/05/25 01:08:41;;;;;;;3.70;2.90;;;10.50;99.90;;;;;;5083756;28;20303;-70
2022/05/25 01:11:22;;;;;;;3.37;3.07;;;10.40;99.90;;;;;;5097010;28;20208;-69
2022/05/25 01:13:57;;;;;;;3.40;3.10;;;10.30;99.90;;;;;;5115206;28;20208;-70
2022/05/25 01:16:29;;;;;;;5.70;3.50;;;10.30;99.90;;;;;;5114903;28;20169;-69
2022/05/25 01:19:11;;;;;;;3.30;3.00;;;10.30;99.90;;;;;;5115103;28;20563;-70
2022/05/25 01:21:52;;;;;;;3.93;3.10;;;10.30;99.90;;;;;;5115286;28;20167;-71
2022/05/25 01:24:46;;;;;;;6.30;3.30;;;10.30;99.90;;;;;;5097081;28;20178;-69
2022/05/25 01:27:12;;;;;;;3.47;3.00;;;10.30;99.90;;;;;;5115467;28;20165;-70
2022/05/25 01:29:49;;;;;;;3.10;2.80;;;10.40;99.90;;;;;;5114476;28;20195;-70
2022/05/25 01:32:21;;;;;;;3.03;2.83;;;10.40;99.90;;;;;;5115318;28;20521;-70
2022/05/25 01:34:59;;;;;;;4.33;3.20;;;10.30;99.90;;;;;;5114840;28;20152;-70
2022/05/25 01:37:34;;;;;;;4.67;3.03;;;10.30;99.90;;;;;;5114647;28;20206;-70
2022/05/25 01:40:21;;;;;;;7.57;3.40;;;10.30;99.90;;;;;;5097240;28;20191;-70
2022/05/25 01:43:08;;;;;;;5.80;3.20;;;10.30;99.90;;;;;;5096822;28;20175;-69
2022/05/25 01:45:41;;;;;;;4.30;3.00;;;10.30;99.90;;;;;;5114771;28;20161;-70
2022/05/25 01:48:09;;;;;;;3.30;3.00;;;10.30;99.90;;;;;;5114747;28;20222;-70
2022/05/25 01:50:46;;;;;;;3.70;3.40;;;10.30;99.90;;;;;;5114756;28;20173;-70
2022/05/25 01:53:15;;;;;;;3.27;3.07;;;10.30;99.90;;;;;;5096499;28;20200;-70
2022/05/25 01:55:53;;;;;;;3.90;3.30;;;10.30;99.90;;;;;;5115365;28;20177;-70
2022/05/25 01:58:21;;;;;;;3.60;3.30;;;10.30;99.90;;;;;;5115121;28;20224;-70
2022/05/25 02:00:50;;;;;;;5.10;3.63;;;10.30;99.90;;;;;;5114754;28;20205;-70
2022/05/25 02:06:19;;;;;;;4.03;3.73;;;10.30;99.90;;;;;;5114926;28;20574;-70
2022/05/25 02:08:53;;;;;;;4.17;3.77;;;10.20;99.90;;;;;;5114769;28;20204;-70
2022/05/25 02:11:33;;;;;;;5.47;3.77;;;10.20;99.90;;;;;;5115260;28;20168;-70
2022/05/25 02:14:40;;;;;;;4.37;3.97;;;10.20;99.90;;;;;;5115186;28;20215;-69
2022/05/25 02:17:23;;;;;;;5.20;3.70;;;10.20;99.90;;;;;;5118484;28;20275;-69
2022/05/25 02:20:13;;;;;;;5.60;3.80;;;10.10;99.90;;;;;;5124238;28;20222;-70
2022/05/25 02:22:45;;;;;;;5.37;4.10;;;10.10;99.90;;;;;;5124669;28;20184;-70
2022/05/25 02:25:16;;;;;;;4.30;3.90;;;10.10;99.90;;;;;;5121478;28;20191;-70
2022/05/25 02:27:45;;;;;;;4.77;3.70;;;10.10;99.90;;;;;;5118132;28;20645;-70
2022/05/25 02:30:20;;;;;;;7.80;3.70;;;10.10;99.90;;;;;;5121624;28;20229;-69
2022/05/25 02:33:14;;;;;;;4.77;3.63;;;10.00;99.90;;;;;;5119715;28;20602;-68
2022/05/25 02:35:43;;;;;;;3.60;3.30;;;10.00;99.90;;;;;;5099931;28;20653;-69
2022/05/25 02:38:09;;;;;;;4.50;3.20;;;10.00;99.90;;;;;;5118434;28;20688;-69
2022/05/25 02:40:38;;;;;;;4.03;3.50;;;10.00;99.90;;;;;;5118885;28;20169;-69
2022/05/25 02:43:06;;;;;;;4.33;3.73;;;10.00;99.90;;;;;;5118690;28;20165;-69
2022/05/25 02:45:32;;;;;;;3.67;3.30;;;10.00;99.90;;;;;;5118307;28;20199;-69
2022/05/25 02:47:58;;;;;;;3.80;3.50;;;9.90;99.90;;;;;;5100101;28;20226;-69
2022/05/25 02:50:24;;;;;;;4.30;3.60;;;9.90;99.90;;;;;;5118001;28;20173;-69
2022/05/25 02:52:49;;;;;;;3.83;3.53;;;9.80;99.90;;;;;;5117967;28;20559;-69
2022/05/25 02:55:16;;;;;;;4.87;3.60;;;9.70;99.90;;;;;;5117990;28;20172;-68
2022/05/25 02:57:42;;;;;;;5.93;3.80;;;9.60;99.90;;;;;;5117940;28;20595;-69
2022/05/25 03:00:09;;;;;;;4.10;3.70;;;9.50;99.90;;;;;;5117955;28;20204;-69
2022/05/25 03:02:36;;;;;;;4.93;3.77;;;9.50;99.90;;;;;;5117923;28;20540;-69
2022/05/25 03:05:04;;;;;;;6.00;3.80;;;9.50;99.90;;;;;;5099339;28;20181;-69
2022/05/25 03:07:30;;;;;;;4.00;3.60;;;9.40;99.90;;;;;;5118142;28;20214;-69
2022/05/25 03:09:55;;;;;;;3.90;3.50;;;9.40;99.90;;;;;;5117586;28;20188;-69
2022/05/25 03:12:21;;;;;;;3.87;3.47;;;9.30;99.90;;;;;;5117610;28;20207;-69
2022/05/25 03:14:47;;;;;;;4.03;3.63;;;9.30;99.90;;;;;;5117522;28;20598;-69
2022/05/25 03:17:14;;;;;;;4.00;3.70;;;9.30;99.90;;;;;;5117896;28;20168;-69
2022/05/25 03:19:49;;;;;;;4.47;3.50;;;9.40;99.90;;;;;;5117132;28;20184;-68
2022/05/25 03:22:15;;;;;;;4.43;3.77;;;9.40;99.90;;;;;;5117370;28;20614;-68
2022/05/25 03:24:40;;;;;;;5.27;4.00;;;9.40;99.90;;;;;;5117408;28;20341;-68
2022/05/25 03:27:06;;;;;;;9.20;4.20;;;9.40;99.90;;;;;;5117879;28;20210;-68
2022/05/25 03:29:32;;;;;;;4.93;3.90;;;9.40;99.90;;;;;;5098954;28;20668;-69
2022/05/25 03:31:59;;;;;;;5.77;4.13;;;9.40;99.90;;;;;;5117203;28;20529;-68
2022/05/25 03:34:25;;;;;;;8.40;4.13;;;9.30;99.90;;;;;;5116868;28;20199;-70
2022/05/25 03:36:54;;;;;;;6.30;3.60;;;9.10;99.90;;;;;;5098810;28;20176;-69
2022/05/25 03:39:24;;;;;;;3.93;3.53;;;9.10;99.90;;;;;;5116533;28;20288;-69
2022/05/25 03:42:01;;;;;;;4.50;3.57;;;9.10;99.90;;;;;;5098790;28;20668;-69
2022/05/25 03:44:28;;;;;;;5.33;3.20;;;9.10;99.90;;;;;;5117318;28;20522;-69
2022/05/25 03:46:54;;;;;;;4.00;3.60;;;9.00;99.90;;;;;;5098346;28;20176;-69
2022/05/25 03:49:20;;;;;;;4.17;3.60;;;9.00;99.90;;;;;;5116445;28;20273;-71
2022/05/25 03:51:46;;;;;;;6.90;4.00;;;8.90;99.90;;;;;;5116580;28;20251;-70
2022/05/25 03:54:12;;;;;;;4.30;3.90;;;9.00;99.90;;;;;;5097900;28;20257;-70
2022/05/25 03:56:38;;;;;;;5.37;3.40;;;9.00;99.90;;;;;;5116647;28;20188;-71
2022/05/25 03:59:04;;;;;;;4.93;3.80;;;9.00;99.90;;;;;;5098209;28;20200;-71
2022/05/25 04:01:31;;;;;;;3.90;3.40;;;9.00;99.90;;;;;;5098226;28;20176;-71
2022/05/25 04:03:58;;;;;;;4.10;3.70;;;8.90;99.90;;;;;;5116239;28;20628;-71
2022/05/25 04:06:25;;;;;;;4.30;3.90;;;8.90;99.90;;;;;;5097989;28;20273;-71
2022/05/25 04:08:50;;;;;;;3.73;3.43;;;8.90;99.90;;;;;;5116253;28;20279;-71
2022/05/25 04:11:16;;;;;;;4.80;3.97;;;9.00;99.90;;;;;;5116958;28;20248;-71
2022/05/25 04:13:42;;;;;;;4.33;3.73;;;9.00;99.90;;;;;;5116088;28;20565;-71
2022/05/25 04:16:08;;;;;;;5.60;3.90;;;9.10;99.90;;;;;;5097887;28;20268;-71
2022/05/25 04:18:33;;;;;;;4.10;3.73;;;9.10;99.90;;;;;;5115989;28;20263;-71
2022/05/25 04:20:59;;;;;;;4.20;3.23;;;9.10;99.90;;;;;;5115872;28;20173;-71
2022/05/25 04:23:26;;;;;;;7.30;3.97;;;9.20;99.90;;;;;;5097586;28;20645;-68
2022/05/25 04:25:53;;;;;;;4.10;3.70;;;9.30;99.90;;;;;;5097621;28;20204;-68
2022/05/25 04:28:20;;;;;;;6.70;3.47;;;9.30;99.90;;;;;;5115653;28;20267;-69
2022/05/25 04:30:46;;;;;;;4.80;3.63;;;9.30;99.90;;;;;;5115933;28;20592;-69
2022/05/25 04:33:12;;;;;;;4.83;4.03;;;9.30;99.90;;;;;;5097501;28;20687;-69
2022/05/25 04:35:38;;;;;;;7.13;4.47;;;9.40;99.90;;;;;;5115739;28;20225;-69
2022/05/25 04:38:06;;;;;;;4.37;3.97;;;9.40;99.90;;;;;;5116080;28;20200;-69
2022/05/25 04:40:41;;;;;;;5.47;4.10;;;9.50;99.90;;;;;;5115889;28;20199;-70
2022/05/25 04:43:19;;;;;;;5.60;4.27;;;9.50;99.90;;;;;;5115554;28;20179;-69
2022/05/25 04:45:48;;;;;;;5.83;4.23;;;9.60;99.90;;;;;;5116146;28;20168;-69
2022/05/25 04:48:15;;;;;;;4.50;4.10;;;9.70;99.90;;;;;;5116452;28;20619;-69
2022/05/25 04:50:43;;;;;;;5.07;4.57;;;9.70;99.90;;;;;;5114765;28;20657;-69
2022/05/25 04:53:11;;;;;;;5.70;4.43;;;9.80;99.90;;;;;;5116062;28;20196;-69
2022/05/25 04:58:21;;;;;;;5.03;4.53;;;10.00;99.90;;;;;;5115104;28;20235;-69
2022/05/25 05:00:47;;;;;;;6.30;4.90;;;10.10;99.90;;;;;;5096914;28;20200;-69
2022/05/25 05:03:13;;;;;;;6.63;5.00;;;10.10;99.90;;;;;;5096951;28;20176;-69
2022/05/25 05:05:39;;;;;;;7.80;5.17;;;10.10;99.90;;;;;;5097051;28;20195;-69
2022/05/25 05:08:06;;;;;;;7.60;5.67;;;10.30;99.90;;;;;;5115620;28;20207;-69
2022/05/25 05:10:32;;;;;;;7.43;4.93;;;10.30;99.90;;;;;;5096621;28;20183;-69
2022/05/25 05:12:58;;;;;;;5.93;5.33;;;10.40;99.90;;;;;;5115199;28;20189;-69
2022/05/25 05:15:24;;;;;;;8.67;5.33;;;10.50;99.90;;;;;;5113975;28;20186;-69
2022/05/25 05:17:49;;;;;;;6.80;5.13;;;10.60;99.90;;;;;;5095711;28;20645;-69
2022/05/25 05:20:15;;;;;;;7.70;5.43;;;10.70;99.90;;;;;;5095515;28;20186;-69
2022/05/25 05:22:41;;;;;;;7.97;5.40;;;10.80;99.90;;;;;;5095394;28;20257;-69
2022/05/25 05:25:07;;;;;;;7.37;6.10;;;10.90;99.90;;;;;;5114041;28;20251;-69
2022/05/25 05:27:34;;;;;;;8.37;6.40;;;10.90;99.90;;;;;;5114239;28;20195;-69
2022/05/25 05:30:04;;;;;;;11.33;6.80;;;11.00;99.90;;;;;;5113777;28;20283;-69
2022/05/25 05:32:30;;;;;;;10.33;6.80;;;11.10;99.90;;;;;;5113680;28;20194;-69
2022/05/25 05:34:57;;;;;;;9.23;6.10;;;11.20;99.90;;;;;;5113711;28;20161;-69
2022/05/25 05:37:29;;;;;;;7.97;6.40;;;11.30;99.90;;;;;;5095707;28;20172;-69
2022/05/25 05:39:57;;;;;;;11.07;7.50;;;11.40;99.90;;;;;;5095384;28;20196;-69
2022/05/25 05:42:24;;;;;;;10.03;7.07;;;11.50;99.90;;;;;;5095548;28;20560;-69
2022/05/25 05:44:58;;;;;;;8.53;6.77;;;11.70;99.90;;;;;;5114103;28;20155;-70
2022/05/25 05:47:30;;;;;;;13.67;7.40;;;11.70;99.90;;;;;;5095462;28;20166;-69
2022/05/25 05:49:56;;;;;;;9.73;7.10;;;11.80;99.90;;;;;;5095102;28;20197;-69
2022/05/25 05:52:22;;;;;;;12.03;7.07;;;12.00;99.90;;;;;;5095206;28;20187;-69
2022/05/25 05:54:48;;;;;;;11.63;7.03;;;12.00;99.90;;;;;;5113364;28;20249;-69
2022/05/25 05:57:14;;;;;;;13.63;7.53;;;12.10;99.90;;;;;;5113709;28;20617;-69
2022/05/25 05:59:40;;;;;;;13.17;7.20;;;12.20;99.90;;;;;;5114472;28;20195;-69
2022/05/25 06:02:07;;;;;;;11.63;7.20;;;12.20;99.90;;;;;;5112580;28;20251;-69
2022/05/25 06:04:33;;;;;;;11.63;6.93;;;12.30;99.90;;;;;;5112819;28;20165;-69
2022/05/25 06:06:59;;;;;;;8.77;6.47;;;12.40;99.90;;;;;;5113632;28;20552;-69
2022/05/25 06:09:24;;;;;;;9.30;6.38;;;12.50;99.90;;;;;;5113102;28;20208;-69
2022/05/25 06:11:50;;;;;;;10.93;7.18;;;12.50;99.90;;;;;;5113198;28;20156;-69
2022/05/25 06:14:16;;;;;;;7.50;6.40;;;12.50;99.90;;;;;;5071029;28;1206331;-69
2022/05/25 06:19:25;;;;;;;9.97;6.83;;;12.70;99.90;;;;;;5113989;28;20309;-69
2022/05/25 06:22:10;;;;;;;12.47;6.80;;;12.70;99.90;;;;;;5095916;28;20657;-69
2022/05/25 06:24:48;;;;;;;8.33;6.20;;;12.80;99.90;;;;;;5095809;28;20203;-69
2022/05/25 06:27:14;;;;;;;8.38;6.00;;;12.90;99.90;;;;;;5095659;28;20172;-69
2022/05/25 06:29:43;;;;;;;9.63;6.27;;;12.90;99.90;;;;;;5095682;28;20244;-69
2022/05/25 06:32:10;;;;;;;10.03;6.03;;;12.90;99.90;;;;;;5095741;28;20180;-69
2022/05/25 06:34:38;;;;;;;11.63;5.80;;;13.10;99.90;;;;;;5113895;28;20203;-69
2022/05/25 06:37:04;;;;;;;11.55;5.65;;;13.10;99.90;;;;;;5113976;28;20169;-70
2022/05/25 06:39:35;;;;;;;8.82;4.75;;;13.10;99.90;;;;;;5113916;28;20688;-70
2022/05/25 06:42:01;;;;;;;12.98;5.63;;;13.20;99.90;;;;;;5114326;28;20164;-70
2022/05/25 06:44:27;;;;;;;6.47;4.85;;;13.20;99.90;;;;;;5095685;28;20182;-70
2022/05/25 06:46:53;;;;;;;6.60;5.03;;;13.30;99.90;;;;;;5114015;28;20547;-70
2022/05/25 06:49:19;;;;;;;8.50;4.90;;;13.40;99.90;;;;;;5096094;28;20209;-69
2022/05/25 06:51:45;;;;;;;6.93;4.38;;;13.50;99.90;;;;;;5113732;28;20683;-69
2022/05/25 06:54:14;;;;;;;5.07;4.25;;;13.60;99.90;;;;;;5095512;28;20208;-69
2022/05/25 06:56:40;;;;;;;4.63;4.10;;;13.60;99.90;;;;;;5095493;28;20263;-69
2022/05/25 06:59:06;;;;;;;6.38;4.05;;;13.70;99.90;;;;;;5095455;28;20201;-71
2022/05/25 07:01:33;;;;;;;7.72;4.18;;;13.70;99.90;;;;;;5095638;28;20636;-70
2022/05/25 07:03:59;;;;;;;7.18;3.90;;;13.90;99.90;;;;;;5095321;28;20186;-67
2022/05/25 07:06:25;;;;;;;8.40;4.18;;;14.00;99.90;;;;;;5114687;28;20185;-68
2022/05/25 07:08:51;;;;;;;5.15;4.00;;;14.10;99.90;;;;;;5096401;28;20204;-68
2022/05/25 07:11:18;;;;;;;5.00;4.07;;;14.20;99.90;;;;;;5115004;28;20221;-68
2022/05/25 07:13:44;;;;;;;5.50;3.60;;;14.20;99.90;;;;;;5114244;28;20566;-68
2022/05/25 07:16:13;;;;;;;5.78;3.47;;;14.30;99.90;;;;;;5099505;28;20290;-68
2022/05/25 07:18:40;;;;;;;5.10;3.70;;;14.30;99.90;;;;;;5119126;28;20193;-69
2022/05/25 07:21:10;;;;;;;6.07;3.50;;;14.30;99.90;;;;;;5099322;28;20184;-69
2022/05/25 07:23:38;;;;;;;8.57;3.47;;;14.30;99.90;;;;;;5117493;28;20177;-69
2022/05/25 07:26:06;;;;;;;5.05;3.28;;;14.30;99.90;;;;;;5117310;28;20180;-70
2022/05/25 07:28:33;;;;;;;3.97;3.60;;;14.40;99.90;;;;;;5098999;28;20610;-69
2022/05/25 07:31:03;;;;;;;4.88;3.40;;;14.30;99.90;;;;;;5117338;28;20218;-69
2022/05/25 07:33:29;;;;;;;5.13;3.15;;;14.40;99.90;;;;;;5117352;28;20668;-70
2022/05/25 07:35:55;;;;;;;4.32;3.10;;;14.50;99.90;;;;;;5117428;28;20169;-70
2022/05/25 07:38:21;;;;;;;5.20;3.15;;;14.60;99.90;;;;;;5117701;28;20214;-70
2022/05/25 07:40:48;;;;;;;7.28;2.97;;;14.70;99.90;;;;;;5117999;28;20217;-71
2022/05/25 07:43:17;;;;;;;8.90;3.40;;;14.80;99.90;;;;;;5117515;28;20164;-71
2022/05/25 07:45:46;;;;;;;3.35;2.63;;;14.90;99.90;;;;;;5117161;28;20183;-71
2022/05/25 07:48:12;;;;;;;6.72;2.58;;;15.10;99.90;;;;;;5117000;28;20698;-70
2022/05/25 07:50:39;;;;;;;3.17;2.25;;;15.10;99.90;;;;;;5098272;28;20180;-70
2022/05/25 07:53:55;;;;;;;2.60;2.40;;;15.10;99.90;;;;;;5098135;28;20196;-69
2022/05/25 07:55:53;;;;;;;3.30;2.75;;;15.10;99.90;;;;;;5116719;28;20176;-70
2022/05/25 07:58:19;;;;;;;3.47;2.80;;;15.10;99.90;;;;;;5116674;28;20214;-70
2022/05/25 08:00:45;;;;;;;2.95;2.58;;;15.10;99.90;;;;;;5116374;28;20173;-69
2022/05/25 08:05:59;;;;;;;3.05;2.38;;;15.20;99.90;;;;;;5116391;28;20235;-69
2022/05/25 08:08:26;;;;;;;3.85;2.60;;;15.20;99.90;;;;;;5097962;28;20207;-70
2022/05/25 08:10:57;;;;;;;7.28;2.90;;;15.20;99.90;;;;;;5116625;28;20179;-70
2022/05/25 08:13:24;;;;;;;3.30;2.47;;;15.30;99.90;;;;;;5116130;28;20197;-70
2022/05/25 08:15:49;;;;;;;3.60;2.63;;;15.20;99.90;;;;;;5116631;28;20156;-70
2022/05/25 08:18:17;;;;;;;2.40;2.20;;;15.20;99.90;;;;;;5116444;28;20242;-70
2022/05/25 08:20:44;;;;;;;3.35;2.20;;;15.30;99.90;;;;;;5097753;28;20168;-69
2022/05/25 08:23:12;;;;;;;3.30;2.67;;;15.40;99.90;;;;;;5116158;28;20243;-70
2022/05/25 08:25:38;;;;;;;4.65;2.67;;;15.50;99.90;;;;;;5096796;28;20181;-70
2022/05/25 08:28:05;;;;;;;3.42;2.30;;;15.50;99.90;;;;;;5115984;28;20203;-70
2022/05/25 08:30:32;;;;;;;4.38;2.38;;;15.70;99.90;;;;;;5116754;28;20221;-71
2022/05/25 08:32:58;;;;;;;3.40;2.10;;;15.80;99.90;;;;;;5116256;28;20195;-70
2022/05/25 08:35:26;;;;;;;3.42;2.30;;;15.90;99.90;;;;;;5116682;28;20187;-70
2022/05/25 08:37:52;;;;;;;3.40;2.20;;;16.00;99.90;;;;;;5117307;28;20263;-70
2022/05/25 08:40:21;;;;;;;3.65;2.10;;;16.10;99.90;;;;;;5101112;28;20264;-70
2022/05/25 08:43:08;;;;;;;3.67;2.20;;;16.10;99.90;;;;;;5118665;28;20199;-70
2022/05/25 08:45:38;;;;;;;1.92;1.83;;;16.20;99.90;;;;;;5100361;28;20172;-71
2022/05/25 08:48:06;;;;;;;4.40;2.30;;;16.30;99.90;;;;;;5121257;28;20204;-71
2022/05/25 08:50:32;;;;;;;4.55;2.10;;;16.40;99.90;;;;;;5117972;28;20180;-70
2022/05/25 08:53:00;;;;;;;2.03;1.92;;;16.60;99.90;;;;;;5117579;28;20227;-73
2022/05/25 08:55:50;;;;;;;2.40;2.20;;;16.40;99.90;;;;;;5116670;28;20161;-73
2022/05/25 08:58:17;;;;;;;3.15;2.10;;;16.50;99.90;;;;;;5098105;28;20201;-71
2022/05/25 09:00:45;;;;;;;2.20;2.00;;;16.60;99.90;;;;;;5116112;28;20663;-71
2022/05/25 09:03:38;;;;;;;2.40;1.80;;;16.90;99.90;;;;;;5115743;28;20183;-70
2022/05/25 09:06:23;;;;;;;3.25;2.00;;;17.00;99.90;;;;;;5084938;28;20184;-70
2022/05/25 09:09:05;;;;;;;2.40;1.98;;;17.10;99.90;;;;;;5115484;28;20200;-70
2022/05/25 09:11:44;;;;;;;1.80;1.70;;;17.20;99.90;;;;;;5115496;28;20160;-71
2022/05/25 09:14:31;;;;;;;5.30;2.00;;;17.50;99.90;;;;;;5097063;28;20210;-71
2022/05/25 09:17:03;;;;;;;3.15;2.08;;;17.60;99.90;;;;;;5097015;28;20586;-71
2022/05/25 09:19:34;;;;;;;2.55;2.33;;;17.80;99.90;;;;;;5096976;28;20567;-70
2022/05/25 09:22:10;;;;;;;4.30;2.20;;;17.70;99.90;;;;;;5114880;28;20152;-73
2022/05/25 09:24:37;;;;;;;4.00;2.20;;;17.80;99.90;;;;;;5115137;28;20233;-71
2022/05/25 09:27:05;;;;;;;2.80;2.20;;;17.80;99.90;;;;;;5115216;28;20176;-70
2022/05/25 09:29:32;;;;;;;2.42;1.70;;;17.80;99.90;;;;;;5096682;28;20583;-71
2022/05/25 09:32:35;;;;;;;5.18;2.10;;;17.90;99.90;;;;;;5114944;28;20255;-71
2022/05/25 09:35:13;;;;;;;3.47;2.28;;;18.10;99.90;;;;;;5096234;28;20191;-71
2022/05/25 09:38:00;;;;;;;4.20;2.20;;;18.20;99.90;;;;;;5114542;28;20251;-71
2022/05/25 09:40:43;;;;;;;3.95;2.50;;;18.00;99.90;;;;;;5114902;28;20161;-71
2022/05/25 09:43:14;;;;;;;3.95;2.08;;;17.90;99.90;;;;;;5096857;28;20164;-72
2022/05/25 09:45:47;;;;;;;3.03;1.85;;;17.90;99.90;;;;;;5115155;28;20230;-71
2022/05/25 09:48:29;;;;;;;2.42;2.10;;;17.90;99.90;;;;;;5096752;28;20253;-71
2022/05/25 09:51:13;;;;;;;3.60;1.80;;;18.00;99.90;;;;;;5114790;28;20144;-71
2022/05/25 09:54:00;;;;;;;2.35;2.05;;;18.00;99.90;;;;;;5114144;28;20748;-69
2022/05/25 09:56:36;;;;;;;2.78;1.85;;;17.90;99.90;;;;;;5114523;28;20618;-69
2022/05/25 09:59:10;;;;;;;2.63;1.90;;;17.90;99.90;;;;;;5114382;28;20188;-70
2022/05/25 10:01:44;;;;;;;2.00;1.90;;;17.80;99.90;;;;;;5114244;28;20157;-70
2022/05/25 10:04:37;;;;;;;3.03;2.03;;;17.30;99.90;;;;;;5114024;28;20171;-69
2022/05/25 10:07:17;;;;;;;2.45;1.85;;;17.30;99.90;;;;;;5113893;28;20169;-70
2022/05/25 10:09:52;;;;;;;2.15;1.80;;;17.40;99.90;;;;;;5095638;28;20208;-70
2022/05/25 10:12:57;;;;;;;2.70;1.90;;;17.80;99.90;;;;;;5114312;28;20516;-70
2022/05/25 10:15:41;;;;;;;3.95;1.80;;;18.00;99.90;;;;;;5099147;28;20695;-70
2022/05/25 10:18:14;;;;;;;4.05;2.00;;;17.80;99.90;;;;;;5114542;28;20180;-70
2022/05/25 10:20:43;;;;;;;3.58;2.03;;;17.70;99.90;;;;;;5114136;28;20686;-70
2022/05/25 10:23:13;;;;;;;2.10;1.83;;;17.40;99.90;;;;;;5114395;28;20655;-70
2022/05/25 10:26:15;;;;;;;4.22;2.08;;;17.20;99.90;;;;;;5114297;28;20621;-70
2022/05/25 10:28:56;;;;;;;2.00;1.90;;;16.90;99.90;;;;;;5113867;28;20248;-70
2022/05/25 10:37:07;;;;;;;3.25;1.90;;;18.00;99.90;;;;;;5114032;28;20203;-70
2022/05/25 10:39:39;;;;;;;2.45;1.90;;;18.30;99.90;;;;;;5113686;28;20200;-72
2022/05/25 10:42:05;;;;;;;1.90;1.80;;;18.50;99.90;;;;;;5113796;28;20157;-70
2022/05/25 10:44:38;;;;;;;1.75;1.65;;;18.70;99.90;;;;;;5113575;28;20172;-71
2022/05/25 10:47:05;;;;;;;3.25;1.70;;;18.90;99.90;;;;;;5114395;28;20264;-71
2022/05/25 10:49:38;;;;;;;2.05;1.42;;;19.20;99.90;;;;;;5115503;28;20188;-71
2022/05/25 10:52:20;;;;;;;1.73;1.45;;;19.40;99.90;;;;;;5099195;28;20183;-70
2022/05/25 10:54:46;;;;;;;2.72;1.45;;;19.60;99.90;;;;;;5117822;28;20192;-71
2022/05/25 10:57:48;;;;;;;2.08;1.63;;;19.80;99.90;;;;;;5117444;28;20177;-71
2022/05/25 11:00:44;;;;;;;2.55;1.40;;;19.50;99.90;;;;;;5117488;28;20172;-71
2022/05/25 11:03:34;;;;;;;1.88;1.75;;;19.70;99.90;;;;;;5081671;28;20184;-71
2022/05/25 11:06:27;;;;;;;2.90;1.30;;;19.90;99.90;;;;;;5098918;28;20183;-71
2022/05/25 11:08:55;;;;;;;2.70;1.70;;;20.10;99.90;;;;;;5098991;28;20291;-71
2022/05/25 11:11:37;;;;;;;3.55;1.88;;;19.80;99.90;;;;;;5098923;28;20180;-71
2022/05/25 11:14:22;;;;;;;3.53;2.03;;;19.50;99.90;;;;;;5116867;28;20218;-72
2022/05/25 11:16:55;;;;;;;3.22;2.00;;;19.20;99.90;;;;;;5117612;28;20157;-72
2022/05/25 11:19:58;;;;;;;2.40;1.83;;;18.70;99.90;;;;;;5117301;28;20221;-71
2022/05/25 11:23:15;;;;;;;2.45;1.90;;;18.40;99.90;;;;;;5116638;28;20225;-71
2022/05/25 11:25:52;;;;;;;2.78;1.70;;;18.10;99.90;;;;;;5014419;28;20243;-71
2022/05/25 11:28:28;;;;;;;1.90;1.65;;;18.60;99.90;;;;;;4998168;28;20227;-72
2022/05/25 11:30:57;;;;;;;1.88;1.55;;;19.10;99.90;;;;;;5086850;28;20598;-73
2022/05/25 11:33:52;;;;;;;2.00;1.60;;;19.40;99.90;;;;;;5117153;28;20637;-71
2022/05/25 11:36:37;;;;;;;1.63;1.50;;;19.50;99.90;;;;;;5071603;28;20230;-72
2022/05/25 11:39:09;;;;;;;2.65;1.45;;;19.40;99.90;;;;;;5117724;28;20199;-71
2022/05/25 11:41:53;;;;;;;1.60;1.50;;;19.20;99.90;;;;;;5099610;28;20220;-69
2022/05/25 11:44:52;;;;;;;2.78;1.73;;;19.20;99.90;;;;;;5118374;28;20554;-69
2022/05/25 11:47:40;;;;;;;1.58;1.45;;;19.00;99.90;;;;;;5117305;28;20157;-71
2022/05/25 11:50:22;;;;;;;2.13;1.67;;;19.10;99.90;;;;;;5116864;28;20164;-72
2022/05/25 11:53:08;;;;;;;1.98;1.40;;;19.40;99.90;;;;;;5116999;28;20569;-73
2022/05/25 11:56:00;;;;;;;2.15;1.55;;;19.20;99.90;;;;;;5116567;28;20164;-73
2022/05/25 11:58:56;;;;;;;2.60;1.50;;;18.80;99.90;;;;;;5116915;28;20217;-71
2022/05/25 12:01:47;;;;;;;3.97;1.48;;;19.00;99.90;;;;;;5097770;28;20177;-72
2022/05/25 12:04:38;;;;;;;1.60;1.50;;;19.40;99.90;;;;;;5116578;28;20264;-72
2022/05/25 12:07:35;;;;;;;1.70;1.45;;;19.20;99.90;;;;;;5098241;28;20177;-69
2022/05/25 12:10:09;;;;;;;1.60;1.50;;;19.30;99.90;;;;;;5116094;28;20192;-69
2022/05/25 12:12:48;;;;;;;4.10;1.67;;;19.50;99.90;;;;;;5115808;28;20162;-68
2022/05/25 12:15:19;;;;;;;1.48;1.30;;;19.70;99.90;;;;;;5097646;28;20192;-71
2022/05/25 12:17:48;;;;;;;2.03;1.38;;;20.10;99.90;;;;;;5117154;28;20179;-73
2022/05/25 12:20:20;;;;;;;2.28;1.30;;;20.20;99.90;;;;;;5116121;28;20176;-73
2022/05/25 12:22:52;;;;;;;1.48;1.38;;;20.40;99.90;;;;;;5097704;28;20645;-73
2022/05/25 12:25:19;;;;;;;1.83;1.20;;;20.20;99.90;;;;;;5116019;28;20206;-72
2022/05/25 12:27:53;;;;;;;2.30;1.40;;;20.70;99.90;;;;;;5116274;28;20180;-71
2022/05/25 12:30:41;;;;;;;1.25;1.13;;;20.80;99.90;;;;;;5097735;28;20180;-70
2022/05/25 12:33:10;;;;;;;4.38;1.23;;;20.70;99.90;;;;;;5116373;28;20184;-71
2022/05/25 12:35:39;;;;;;;3.88;1.15;;;21.10;99.90;;;;;;5115529;28;20535;-71
2022/05/25 12:38:07;;;;;;;1.40;1.30;;;20.80;99.90;;;;;;5115498;28;20189;-71
2022/05/25 12:40:47;;;;;;;1.98;1.77;;;20.10;99.90;;;;;;5115465;28;20625;-70
2022/05/25 12:43:37;;;;;;;1.95;1.52;;;19.60;99.90;;;;;;5097302;28;20204;-71
2022/05/25 12:48:57;;;;;;;3.38;1.30;;;20.50;99.90;;;;;;5115619;28;20215;-71
2022/05/25 12:51:39;;;;;;;2.20;1.20;;;20.40;99.90;;;;;;5115382;28;20221;-71
2022/05/25 12:54:28;;;;;;;5.22;1.30;;;20.20;99.90;;;;;;5116664;28;20207;-71
2022/05/25 12:56:56;;;;;;;6.15;1.42;;;20.20;99.90;;;;;;5115526;28;20625;-71
2022/05/25 12:59:34;;;;;;;2.70;1.80;;;20.40;99.90;;;;;;5115311;28;20298;-71
2022/05/25 13:02:29;;;;;;;2.58;1.55;;;20.70;99.90;;;;;;5097281;28;20176;-71
2022/05/25 13:04:55;;;;;;;6.10;1.50;;;21.20;99.90;;;;;;5112627;28;20176;-70
2022/05/25 13:07:33;;;;;;;2.90;1.38;;;21.10;99.90;;;;;;5114897;28;20167;-71
2022/05/25 13:09:58;;;;;;;2.88;1.45;;;20.60;99.90;;;;;;5115112;28;20219;-71
2022/05/25 13:12:39;;;;;;;1.40;1.30;;;20.40;99.90;;;;;;5096119;28;20206;-71
2022/05/25 13:15:20;;;;;;;1.30;1.20;;;20.50;99.90;;;;;;5114990;28;20708;-71
2022/05/25 13:17:58;;;;;;;2.85;1.15;;;20.60;99.90;;;;;;5114839;28;20625;-71
2022/05/25 13:20:27;;;;;;;5.03;1.33;;;20.90;99.90;;;;;;5096822;28;20168;-71
2022/05/25 13:22:55;;;;;;;4.45;1.40;;;21.00;99.90;;;;;;5115479;28;20531;-72
2022/05/25 13:25:42;;;;;;;1.20;1.10;;;20.80;99.90;;;;;;5115360;28;20229;-71
2022/05/25 13:28:20;;;;;;;2.20;1.25;;;20.90;99.90;;;;;;5096387;28;20188;-71
2022/05/25 13:30:58;;;;;;;1.98;1.10;;;20.30;99.90;;;;;;5114677;28;20145;-71
2022/05/25 13:33:27;;;;;;;1.75;1.35;;;20.60;99.90;;;;;;5114715;28;20583;-71
2022/05/25 13:36:05;;;;;;;1.75;1.48;;;20.50;99.90;;;;;;5114800;28;20207;-72